Custer, Kentucky
Current Conditions -  °F | °C
As of 1:58 AM on Friday 28 Nov 2014 (Local Time) from KFTK Reporting Station
Clear Clear  
Wind Chill: 20°   Ceiling: Unl
Heat Index: 20°   Visibility: 10mi
Dew Point: 17°   Wind: 2mph
Humidity: 89%   Direction: 250°WSW
Pressure: 30.41"   Gusts: NA
Location:  37.74°N, 86.25°W
Report Text: KFTK 280758Z AUTO 25002KT 10SM CLR M07/M08 A3041 RMK AO2 SLP310 T10691084
Loading
Personal Weather Stations






























Interactive Weather Map New forecast layout! Learn more

10-Day Weather Forecast

Advertisements
Track Severe Weather on mobile